createdAt,value
2023-03-29T00:00:16.716Z,7.90
2023-03-29T00:02:48.562Z,7.70
2023-03-29T00:05:18.800Z,7.60
2023-03-29T00:07:46.454Z,7.60
2023-03-29T00:10:14.110Z,7.60
2023-03-29T00:12:41.928Z,7.70
2023-03-29T00:15:12.228Z,7.70
2023-03-29T00:17:39.908Z,7.70
2023-03-29T00:20:11.085Z,7.70
2023-03-29T00:22:42.114Z,7.70
2023-03-29T00:25:11.668Z,7.70
2023-03-29T00:27:39.931Z,7.80
2023-03-29T00:30:08.970Z,7.70
2023-03-29T00:32:37.604Z,7.60
2023-03-29T00:35:06.319Z,7.60
2023-03-29T00:37:34.052Z,7.60
2023-03-29T00:40:01.781Z,7.60
2023-03-29T00:42:30.239Z,7.60
2023-03-29T00:45:10.073Z,7.60
2023-03-29T00:47:41.488Z,7.50
2023-03-29T00:50:15.816Z,7.60
2023-03-29T00:52:48.653Z,7.60
2023-03-29T00:55:21.795Z,7.60
2023-03-29T00:57:52.141Z,7.60
2023-03-29T01:00:24.630Z,7.80
2023-03-29T01:02:54.728Z,7.60
2023-03-29T01:05:33.620Z,7.70
2023-03-29T01:08:17.957Z,7.60
2023-03-29T01:11:11.390Z,7.60
2023-03-29T01:13:47.685Z,7.60
2023-03-29T01:16:19.662Z,7.70
2023-03-29T01:18:52.196Z,7.60
2023-03-29T01:21:30.241Z,7.60
2023-03-29T01:24:41.836Z,7.60
2023-03-29T01:27:35.375Z,7.70
2023-03-29T01:30:11.514Z,7.70
2023-03-29T01:33:01.322Z,7.60
2023-03-29T01:35:38.336Z,7.60
2023-03-29T01:38:21.469Z,7.60
2023-03-29T01:40:49.130Z,7.60
2023-03-29T01:43:32.526Z,7.60
2023-03-29T01:46:03.105Z,7.60
2023-03-29T01:48:40.740Z,7.60
2023-03-29T01:51:42.153Z,7.80
2023-03-29T01:54:15.130Z,7.60
2023-03-29T01:56:46.597Z,7.60
2023-03-29T01:59:18.130Z,7.60
2023-03-29T02:01:51.666Z,7.70
2023-03-29T02:04:26.651Z,7.70
2023-03-29T02:07:00.215Z,7.80
2023-03-29T02:09:30.196Z,7.70
2023-03-29T02:12:00.891Z,7.70
2023-03-29T02:14:30.417Z,7.70
2023-03-29T02:17:20.343Z,7.70
2023-03-29T02:19:53.466Z,7.70
2023-03-29T02:22:31.534Z,7.70
2023-03-29T02:25:04.711Z,7.70
2023-03-29T02:27:32.454Z,7.70
2023-03-29T02:30:00.541Z,7.70
2023-03-29T02:32:40.292Z,7.70
2023-03-29T02:35:14.666Z,7.60
2023-03-29T02:37:47.667Z,7.60
2023-03-29T02:40:17.510Z,7.60
2023-03-29T02:42:47.629Z,7.60
2023-03-29T02:45:17.336Z,7.50
2023-03-29T02:47:51.501Z,7.60
2023-03-29T02:50:20.343Z,7.60
2023-03-29T02:52:57.611Z,7.60
2023-03-29T02:55:31.248Z,7.60
2023-03-29T02:57:58.967Z,7.60
2023-03-29T03:00:26.662Z,7.60
2023-03-29T03:02:55.214Z,7.60
2023-03-29T03:05:23.827Z,7.60
2023-03-29T03:07:51.888Z,7.70
2023-03-29T03:10:19.457Z,7.60
2023-03-29T03:12:49.655Z,7.60
2023-03-29T03:15:17.329Z,7.50
2023-03-29T03:17:46.460Z,7.50
2023-03-29T03:20:14.141Z,7.50
2023-03-29T03:22:48.909Z,7.50
2023-03-29T03:25:21.734Z,7.60
2023-03-29T03:27:50.259Z,7.50
2023-03-29T03:30:20.889Z,7.50
2023-03-29T03:32:49.917Z,7.50
2023-03-29T03:35:18.069Z,7.40
2023-03-29T03:37:45.664Z,7.50
2023-03-29T03:40:13.850Z,7.40
2023-03-29T03:42:41.729Z,7.40
2023-03-29T03:45:12.229Z,7.60
2023-03-29T03:47:39.992Z,7.50
2023-03-29T03:50:09.085Z,7.60
2023-03-29T03:52:36.731Z,7.50
2023-03-29T03:55:04.742Z,7.50
2023-03-29T03:57:33.137Z,7.50
2023-03-29T04:00:00.810Z,7.50
2023-03-29T04:02:33.245Z,7.50
2023-03-29T04:05:03.254Z,7.50
2023-03-29T04:07:33.149Z,7.50
2023-03-29T04:10:00.715Z,7.50
2023-03-29T04:12:28.331Z,7.40
2023-03-29T04:14:56.105Z,7.50
2023-03-29T04:17:23.989Z,7.50
2023-03-29T04:19:51.726Z,7.50
2023-03-29T04:22:19.423Z,7.50
2023-03-29T04:24:47.541Z,7.50
2023-03-29T04:27:15.217Z,7.50
2023-03-29T04:29:46.375Z,7.50
2023-03-29T04:32:14.004Z,7.50
2023-03-29T04:34:41.723Z,7.50
2023-03-29T04:37:12.378Z,7.50
2023-03-29T04:39:44.865Z,7.50
2023-03-29T04:42:12.997Z,7.50
2023-03-29T04:44:43.520Z,7.50
2023-03-29T04:47:14.741Z,7.50
2023-03-29T04:49:42.604Z,7.60
2023-03-29T04:52:10.253Z,7.50
2023-03-29T04:54:38.060Z,7.50
2023-03-29T04:57:06.783Z,7.50
2023-03-29T04:59:34.773Z,7.50
2023-03-29T05:02:05.308Z,7.60
2023-03-29T05:04:33.051Z,7.60
2023-03-29T05:07:02.176Z,7.50
2023-03-29T05:09:31.618Z,7.60
2023-03-29T05:12:00.134Z,7.60
2023-03-29T05:14:27.748Z,7.60
2023-03-29T05:16:55.442Z,7.60
2023-03-29T05:19:23.099Z,7.60
2023-03-29T05:21:51.154Z,7.70
2023-03-29T05:24:19.841Z,7.60
2023-03-29T05:26:56.648Z,7.60
2023-03-29T05:29:24.327Z,7.60
2023-03-29T05:31:52.539Z,7.70
2023-03-29T05:34:20.557Z,7.70
2023-03-29T05:36:49.013Z,7.70
2023-03-29T05:39:16.654Z,7.70
2023-03-29T05:41:44.507Z,7.90
2023-03-29T05:44:12.152Z,7.80
2023-03-29T05:46:39.779Z,7.80
2023-03-29T05:49:07.434Z,7.80
2023-03-29T05:51:35.442Z,7.90
2023-03-29T05:54:03.257Z,7.90
2023-03-29T05:56:31.217Z,7.90
2023-03-29T05:58:59.332Z,8.00
2023-03-29T06:01:27.030Z,8.00
2023-03-29T06:03:56.211Z,8.00
2023-03-29T06:06:24.035Z,8.00
2023-03-29T06:08:54.154Z,8.10
2023-03-29T06:11:24.276Z,8.20
2023-03-29T06:13:52.836Z,8.10
2023-03-29T06:16:20.500Z,8.20
2023-03-29T06:18:48.812Z,8.20
2023-03-29T06:21:16.760Z,8.30
2023-03-29T06:23:45.129Z,8.30
2023-03-29T06:26:12.958Z,8.30
2023-03-29T06:28:40.582Z,8.30
2023-03-29T06:31:09.992Z,8.30
2023-03-29T06:33:38.192Z,8.20
2023-03-29T06:36:06.307Z,8.30
2023-03-29T06:38:34.177Z,8.30
2023-03-29T06:41:06.786Z,8.40
2023-03-29T06:43:34.835Z,8.30
2023-03-29T06:46:02.804Z,8.40
2023-03-29T06:48:30.571Z,8.40
2023-03-29T06:50:58.170Z,8.40
2023-03-29T06:53:26.303Z,8.50
2023-03-29T06:55:54.019Z,8.50
2023-03-29T06:58:21.888Z,8.60
2023-03-29T07:00:53.842Z,8.60
2023-03-29T07:03:23.436Z,8.70
2023-03-29T07:05:52.194Z,8.70
2023-03-29T07:08:21.419Z,8.80
2023-03-29T07:10:53.315Z,9.00
2023-03-29T07:13:20.926Z,8.80
2023-03-29T07:15:48.536Z,8.90
2023-03-29T07:18:18.374Z,8.90
2023-03-29T07:20:47.629Z,8.90
2023-03-29T07:23:15.338Z,8.90
2023-03-29T07:25:42.992Z,9.00
2023-03-29T07:28:11.267Z,9.00
2023-03-29T07:30:40.316Z,9.00
2023-03-29T07:33:09.574Z,9.10
2023-03-29T07:35:38.203Z,9.20
2023-03-29T07:38:05.827Z,9.30
2023-03-29T07:40:34.133Z,9.50
2023-03-29T07:43:09.711Z,9.60
2023-03-29T07:45:37.487Z,9.70
2023-03-29T07:48:05.577Z,9.80
2023-03-29T07:50:33.252Z,9.90
2023-03-29T07:53:01.629Z,10.10
2023-03-29T07:55:29.536Z,10.30
2023-03-29T07:57:57.153Z,10.60
2023-03-29T08:00:25.215Z,10.70
2023-03-29T08:02:53.220Z,10.80
2023-03-29T08:05:37.907Z,11.00
2023-03-29T08:08:09.433Z,11.00
2023-03-29T08:10:39.365Z,11.40
2023-03-29T08:13:09.244Z,11.50
2023-03-29T08:15:39.344Z,11.70
2023-03-29T08:18:08.051Z,11.70
2023-03-29T08:20:36.283Z,11.70
2023-03-29T08:23:03.979Z,11.90
2023-03-29T08:25:31.852Z,12.00
2023-03-29T08:27:59.561Z,12.10
2023-03-29T08:30:27.727Z,11.90
2023-03-29T08:32:56.078Z,12.00
2023-03-29T08:35:23.784Z,12.30
2023-03-29T08:37:51.447Z,12.30
2023-03-29T08:40:27.946Z,12.60
2023-03-29T08:43:24.008Z,12.50
2023-03-29T08:46:03.681Z,12.60
2023-03-29T08:48:57.822Z,12.50
2023-03-29T08:51:30.506Z,12.60
2023-03-29T08:54:03.884Z,12.90
2023-03-29T08:56:34.686Z,12.90
2023-03-29T08:59:03.568Z,13.00
2023-03-29T09:01:36.240Z,13.20
2023-03-29T09:04:09.768Z,13.40
2023-03-29T09:06:39.529Z,13.60
2023-03-29T09:09:17.268Z,13.60
2023-03-29T09:12:23.068Z,13.60
2023-03-29T09:15:19.613Z,13.50
2023-03-29T09:17:49.611Z,13.20
2023-03-29T09:20:30.944Z,13.20
2023-03-29T09:23:01.644Z,13.30
2023-03-29T09:25:52.613Z,13.60
2023-03-29T09:28:37.079Z,13.70
2023-03-29T09:31:16.731Z,13.20
2023-03-29T09:33:56.951Z,13.30
2023-03-29T09:36:41.436Z,13.50
2023-03-29T09:39:14.413Z,13.60
2023-03-29T09:41:54.507Z,13.60
2023-03-29T09:44:31.115Z,14.00
2023-03-29T09:47:07.464Z,14.30
2023-03-29T09:49:39.781Z,14.70
2023-03-29T09:52:13.318Z,15.00
2023-03-29T09:54:41.421Z,15.40
2023-03-29T09:57:19.583Z,15.30
2023-03-29T09:59:50.791Z,15.60
2023-03-29T10:02:20.384Z,15.80
2023-03-29T10:04:55.376Z,16.20
2023-03-29T10:07:23.510Z,16.10
2023-03-29T10:09:52.450Z,16.40
2023-03-29T10:12:22.650Z,16.30
2023-03-29T10:14:53.954Z,16.50
2023-03-29T10:20:19.771Z,16.60
2023-03-29T10:22:54.270Z,16.70
2023-03-29T10:25:33.095Z,16.70
2023-03-29T10:28:08.063Z,16.40
2023-03-29T10:30:38.586Z,15.90
2023-03-29T10:33:15.202Z,16.30
2023-03-29T10:35:43.778Z,16.80
2023-03-29T10:38:14.958Z,17.30
2023-03-29T10:40:47.288Z,17.60
2023-03-29T10:43:18.078Z,17.90
2023-03-29T10:45:53.772Z,18.10
2023-03-29T10:48:29.861Z,18.20
2023-03-29T10:51:02.751Z,18.40
2023-03-29T10:53:33.014Z,18.40
2023-03-29T10:56:29.508Z,18.20
2023-03-29T10:59:07.332Z,18.20
2023-03-29T11:01:48.153Z,18.30
2023-03-29T11:04:19.149Z,18.10
2023-03-29T11:06:53.414Z,17.90
2023-03-29T11:09:39.851Z,18.10
2023-03-29T11:12:24.349Z,18.50
2023-03-29T11:14:58.118Z,19.80
2023-03-29T11:17:43.040Z,22.80
2023-03-29T11:20:36.502Z,23.60
2023-03-29T11:23:22.611Z,24.80
2023-03-29T11:26:12.989Z,25.90
2023-03-29T11:29:12.110Z,25.80
2023-03-29T11:31:48.907Z,24.90
2023-03-29T11:34:34.711Z,24.00
2023-03-29T11:37:28.722Z,23.60
2023-03-29T11:40:15.560Z,22.70
2023-03-29T11:42:48.431Z,21.40
2023-03-29T11:45:25.367Z,20.30
2023-03-29T11:47:55.485Z,19.40
2023-03-29T11:50:29.404Z,18.90
2023-03-29T11:53:05.249Z,18.60
2023-03-29T11:55:37.012Z,18.40
2023-03-29T11:58:17.743Z,18.30
2023-03-29T12:00:55.231Z,18.40
2023-03-29T12:03:32.731Z,19.00
2023-03-29T12:06:16.651Z,19.70
2023-03-29T12:09:00.473Z,20.70
2023-03-29T12:11:40.270Z,21.30
2023-03-29T12:14:16.789Z,21.40
2023-03-29T12:16:49.890Z,21.80
2023-03-29T12:19:23.083Z,21.80
2023-03-29T12:21:54.329Z,21.10
2023-03-29T12:24:22.256Z,20.90
2023-03-29T12:27:03.677Z,20.10
2023-03-29T12:29:40.594Z,19.10
2023-03-29T12:32:47.070Z,18.30
2023-03-29T12:35:37.791Z,17.80
2023-03-29T12:38:35.760Z,17.60
2023-03-29T12:41:21.643Z,17.90
2023-03-29T12:43:51.116Z,17.90
2023-03-29T12:46:26.386Z,18.10
2023-03-29T12:49:05.707Z,18.80
2023-03-29T12:51:36.831Z,19.60
2023-03-29T12:54:10.175Z,20.70
2023-03-29T12:56:55.149Z,22.10
2023-03-29T12:59:43.623Z,21.70
2023-03-29T13:02:14.419Z,21.50
2023-03-29T13:04:56.706Z,22.80
2023-03-29T13:07:26.458Z,24.50
2023-03-29T13:09:55.530Z,24.90
2023-03-29T13:12:35.267Z,24.20
2023-03-29T13:15:05.467Z,23.50
2023-03-29T13:17:46.926Z,23.30
2023-03-29T13:20:25.679Z,23.80
2023-03-29T13:23:23.509Z,23.10
2023-03-29T13:26:13.018Z,22.40
2023-03-29T13:29:18.788Z,22.90
2023-03-29T13:31:50.564Z,24.40
2023-03-29T13:34:27.480Z,25.10
2023-03-29T13:37:22.562Z,26.30
2023-03-29T13:39:53.447Z,27.90
2023-03-29T13:42:25.177Z,28.70
2023-03-29T13:45:05.378Z,28.90
2023-03-29T13:47:33.154Z,27.70
2023-03-29T13:50:05.938Z,28.10
2023-03-29T13:52:38.798Z,28.90
2023-03-29T13:55:21.757Z,29.10
2023-03-29T13:57:55.610Z,28.70
2023-03-29T14:00:40.001Z,29.10
2023-03-29T14:03:13.054Z,28.50
2023-03-29T14:05:47.744Z,26.90
2023-03-29T14:08:27.295Z,26.60
2023-03-29T14:10:58.772Z,26.80
2023-03-29T14:13:27.247Z,26.70
2023-03-29T14:16:02.847Z,26.50
2023-03-29T14:18:38.950Z,26.10
2023-03-29T14:21:07.709Z,24.80
2023-03-29T14:23:37.701Z,24.00
2023-03-29T14:26:18.888Z,22.70
2023-03-29T14:28:50.563Z,21.80
2023-03-29T14:31:26.987Z,20.80
2023-03-29T14:34:00.087Z,19.90
2023-03-29T14:36:30.049Z,19.40
2023-03-29T14:39:08.066Z,19.20
2023-03-29T14:41:37.772Z,19.00
2023-03-29T14:44:07.620Z,18.90
2023-03-29T14:46:36.634Z,18.70
2023-03-29T14:49:06.141Z,18.70
2023-03-29T14:51:36.971Z,18.90
2023-03-29T14:54:08.937Z,19.00
2023-03-29T14:56:36.878Z,18.80
2023-03-29T14:59:04.850Z,18.70
2023-03-29T15:01:33.381Z,18.70
2023-03-29T15:04:10.239Z,18.60
2023-03-29T15:06:41.084Z,18.50
2023-03-29T15:09:20.729Z,18.30
2023-03-29T15:11:56.299Z,18.20
2023-03-29T15:14:26.910Z,18.20
2023-03-29T15:17:02.136Z,18.10
2023-03-29T15:19:31.069Z,18.20
2023-03-29T15:22:12.210Z,18.10
2023-03-29T15:24:47.099Z,18.20
2023-03-29T15:27:17.791Z,18.20
2023-03-29T15:29:47.518Z,18.30
2023-03-29T15:32:33.609Z,18.20
2023-03-29T15:35:07.872Z,18.30
2023-03-29T15:37:36.053Z,18.30
2023-03-29T15:40:09.565Z,18.40
2023-03-29T15:42:37.507Z,18.30
2023-03-29T15:45:06.525Z,18.40
2023-03-29T15:47:34.235Z,18.30
2023-03-29T15:50:02.044Z,18.30
2023-03-29T15:52:29.742Z,18.50
2023-03-29T15:54:57.378Z,18.60
2023-03-29T15:57:25.508Z,18.70
2023-03-29T15:59:53.252Z,18.60
2023-03-29T16:02:24.525Z,18.50
2023-03-29T16:04:53.425Z,18.20
2023-03-29T16:07:21.152Z,18.10
2023-03-29T16:09:48.795Z,18.00
2023-03-29T16:12:16.598Z,17.90
2023-03-29T16:14:44.248Z,17.60
2023-03-29T16:17:12.355Z,17.50
2023-03-29T16:19:40.060Z,17.20
2023-03-29T16:22:07.873Z,17.10
2023-03-29T16:24:36.211Z,16.90
2023-03-29T16:27:04.397Z,16.90
2023-03-29T16:29:32.924Z,16.90
2023-03-29T16:32:07.210Z,16.80
2023-03-29T16:34:38.243Z,16.80
2023-03-29T16:37:06.096Z,16.70
2023-03-29T16:39:46.548Z,16.70
2023-03-29T16:42:14.175Z,16.70
2023-03-29T16:44:41.968Z,16.70
2023-03-29T16:47:11.167Z,16.70
2023-03-29T16:49:41.924Z,16.70
2023-03-29T16:52:12.874Z,16.70
2023-03-29T16:54:40.540Z,16.70
2023-03-29T16:57:08.306Z,16.60
2023-03-29T16:59:36.576Z,16.60
2023-03-29T17:02:04.313Z,16.50
2023-03-29T17:04:32.007Z,16.30
2023-03-29T17:06:59.793Z,16.40
2023-03-29T17:09:29.734Z,16.20
2023-03-29T17:11:57.692Z,16.20
2023-03-29T17:14:26.507Z,16.20
2023-03-29T17:16:55.865Z,16.10
2023-03-29T17:19:23.626Z,16.10
2023-03-29T17:21:51.314Z,16.00
2023-03-29T17:24:19.116Z,15.90
2023-03-29T17:26:46.879Z,15.90
2023-03-29T17:29:14.540Z,15.80
2023-03-29T17:31:48.272Z,15.80
2023-03-29T17:34:19.054Z,15.70
2023-03-29T17:36:46.893Z,15.70
2023-03-29T17:39:15.361Z,15.70
2023-03-29T17:41:43.081Z,15.70
2023-03-29T17:44:14.978Z,15.60
2023-03-29T17:46:42.761Z,15.50
2023-03-29T17:49:10.585Z,15.50
2023-03-29T17:51:38.321Z,15.40
2023-03-29T17:54:06.272Z,15.40
2023-03-29T17:56:34.104Z,15.30
2023-03-29T17:59:01.788Z,15.30
2023-03-29T18:01:29.661Z,15.40
2023-03-29T18:03:57.362Z,15.20
2023-03-29T18:06:24.945Z,15.20
2023-03-29T18:08:53.343Z,15.10
2023-03-29T18:11:23.884Z,15.10
2023-03-29T18:13:52.952Z,14.90
2023-03-29T18:16:22.278Z,14.90
2023-03-29T18:18:50.902Z,14.80
2023-03-29T18:21:27.753Z,14.70
2023-03-29T18:24:00.189Z,14.70
2023-03-29T18:26:28.584Z,14.90
2023-03-29T18:28:56.306Z,14.70
2023-03-29T18:31:30.135Z,14.70
2023-03-29T18:34:06.916Z,14.60
2023-03-29T18:36:51.481Z,14.60
2023-03-29T18:39:28.605Z,14.50
2023-03-29T18:41:56.562Z,14.40
2023-03-29T18:44:27.395Z,14.40
2023-03-29T18:46:55.239Z,14.40
2023-03-29T18:49:23.168Z,14.30
2023-03-29T18:51:55.196Z,14.40
2023-03-29T18:54:22.806Z,14.20
2023-03-29T18:56:51.478Z,14.00
2023-03-29T18:59:19.795Z,14.10
2023-03-29T19:01:47.769Z,14.00
2023-03-29T19:04:15.544Z,14.00
2023-03-29T19:06:43.642Z,14.00
2023-03-29T19:09:11.630Z,14.00
2023-03-29T19:11:39.249Z,14.00
2023-03-29T19:14:09.125Z,14.00
2023-03-29T19:16:42.301Z,14.00
2023-03-29T19:19:10.775Z,13.90
2023-03-29T19:21:38.503Z,13.80
2023-03-29T19:24:07.759Z,13.80
2023-03-29T19:26:35.480Z,13.80
2023-03-29T19:29:03.392Z,13.80
2023-03-29T19:31:33.505Z,13.70
2023-03-29T19:34:01.393Z,13.70
2023-03-29T19:36:29.105Z,13.80
2023-03-29T19:38:56.914Z,13.70
2023-03-29T19:41:24.582Z,13.70
2023-03-29T19:43:55.060Z,13.70
2023-03-29T19:46:23.292Z,13.70
2023-03-29T19:48:55.525Z,13.70
2023-03-29T19:51:23.593Z,13.60
2023-03-29T19:53:51.310Z,13.50
2023-03-29T19:56:18.951Z,13.60
2023-03-29T19:58:48.118Z,13.60
2023-03-29T20:01:20.554Z,13.50
2023-03-29T20:03:51.536Z,13.50
2023-03-29T20:06:21.507Z,13.50
2023-03-29T20:08:49.778Z,13.40
2023-03-29T20:11:19.925Z,13.40
2023-03-29T20:13:47.580Z,13.30
2023-03-29T20:16:18.015Z,13.30
2023-03-29T20:18:46.496Z,13.20
2023-03-29T20:21:16.263Z,13.10
2023-03-29T20:23:44.824Z,13.10
2023-03-29T20:26:12.611Z,13.00
2023-03-29T20:28:40.221Z,13.10
2023-03-29T20:31:28.018Z,13.00
2023-03-29T20:34:11.717Z,13.00
2023-03-29T20:37:08.504Z,13.00
2023-03-29T20:39:48.371Z,12.90
2023-03-29T20:42:36.821Z,12.90
2023-03-29T20:45:51.585Z,12.80
2023-03-29T20:49:02.311Z,12.90
2023-03-29T20:58:02.266Z,12.70
2023-03-29T21:00:52.068Z,12.70
2023-03-29T21:03:40.974Z,12.70
2023-03-29T21:06:51.096Z,12.70
2023-03-29T21:13:04.245Z,12.80
2023-03-29T21:15:53.788Z,12.70
2023-03-29T21:21:54.061Z,12.60
2023-03-29T21:25:03.604Z,12.60
2023-03-29T21:27:49.658Z,12.60
2023-03-29T21:30:40.863Z,12.60
2023-03-29T21:33:45.570Z,12.60
2023-03-29T21:36:27.561Z,12.60
2023-03-29T21:42:10.402Z,12.60
2023-03-29T21:45:10.253Z,12.50
2023-03-29T21:48:02.610Z,12.50
2023-03-29T21:50:38.891Z,12.40
2023-03-29T21:53:20.985Z,12.40
2023-03-29T21:55:57.556Z,12.30
2023-03-29T21:58:59.893Z,12.20
2023-03-29T22:02:03.883Z,12.30
2023-03-29T22:04:52.182Z,12.20
2023-03-29T22:07:47.735Z,12.30
2023-03-29T22:10:28.642Z,12.20
2023-03-29T22:13:10.922Z,12.20
2023-03-29T22:16:14.542Z,12.20
2023-03-29T22:18:55.581Z,12.20
2023-03-29T22:21:46.402Z,12.20
2023-03-29T22:24:51.504Z,12.20
2023-03-29T22:27:36.696Z,12.20
2023-03-29T22:30:16.959Z,12.10
2023-03-29T22:35:53.980Z,12.10
2023-03-29T22:38:43.772Z,12.10
2023-03-29T22:41:30.097Z,12.10
2023-03-29T22:44:06.356Z,12.10
2023-03-29T22:47:00.697Z,12.00
2023-03-29T22:49:56.341Z,11.90
2023-03-29T22:52:55.137Z,12.00
2023-03-29T22:56:00.133Z,12.10
2023-03-29T22:58:39.578Z,11.90
2023-03-29T23:01:17.459Z,11.90
2023-03-29T23:03:49.630Z,11.90
2023-03-29T23:06:41.320Z,11.80
2023-03-29T23:12:19.244Z,11.90
2023-03-29T23:15:24.659Z,11.90
2023-03-29T23:21:29.070Z,11.90
2023-03-29T23:24:01.684Z,11.80
2023-03-29T23:26:43.052Z,11.70
2023-03-29T23:29:23.824Z,11.60
2023-03-29T23:32:15.069Z,11.60
2023-03-29T23:35:31.716Z,11.70
2023-03-29T23:41:17.466Z,11.70
2023-03-29T23:43:47.041Z,11.60
2023-03-29T23:46:16.828Z,11.60
2023-03-29T23:48:46.135Z,11.60
2023-03-29T23:51:13.958Z,11.50
2023-03-29T23:53:41.872Z,11.40
2023-03-29T23:56:09.677Z,11.60
2023-03-29T23:58:38.080Z,11.40
